sensor_id;sensor_type;location;lat;lon;timestamp;P1;durP1;ratioP1;P2;durP2;ratioP2
51382;SDS011;37475;43.358;1.248;2023-09-19T00:02:16;7.70;;;1.95;;
51382;SDS011;37475;43.358;1.248;2023-09-19T00:04:43;9.40;;;1.90;;
51382;SDS011;37475;43.358;1.248;2023-09-19T00:07:09;8.77;;;1.95;;
51382;SDS011;37475;43.358;1.248;2023-09-19T00:09:35;7.53;;;1.65;;
51382;SDS011;37475;43.358;1.248;2023-09-19T00:12:04;9.65;;;2.00;;
51382;SDS011;37475;43.358;1.248;2023-09-19T00:14:32;5.03;;;1.60;;
51382;SDS011;37475;43.358;1.248;2023-09-19T00:17:03;8.05;;;1.60;;
51382;SDS011;37475;43.358;1.248;2023-09-19T00:19:35;6.63;;;1.70;;
51382;SDS011;37475;43.358;1.248;2023-09-19T00:22:01;7.50;;;1.73;;
51382;SDS011;37475;43.358;1.248;2023-09-19T00:24:27;6.47;;;1.58;;
51382;SDS011;37475;43.358;1.248;2023-09-19T00:26:53;8.02;;;1.70;;
51382;SDS011;37475;43.358;1.248;2023-09-19T00:29:20;8.35;;;1.80;;
51382;SDS011;37475;43.358;1.248;2023-09-19T00:31:48;4.90;;;1.70;;
51382;SDS011;37475;43.358;1.248;2023-09-19T00:34:15;5.40;;;1.63;;
51382;SDS011;37475;43.358;1.248;2023-09-19T00:36:41;6.95;;;1.80;;
51382;SDS011;37475;43.358;1.248;2023-09-19T00:39:08;7.88;;;2.03;;
51382;SDS011;37475;43.358;1.248;2023-09-19T00:41:35;7.53;;;1.70;;
51382;SDS011;37475;43.358;1.248;2023-09-19T00:44:02;5.20;;;1.50;;
51382;SDS011;37475;43.358;1.248;2023-09-19T00:46:29;6.05;;;1.75;;
51382;SDS011;37475;43.358;1.248;2023-09-19T00:48:57;8.00;;;2.17;;
51382;SDS011;37475;43.358;1.248;2023-09-19T00:51:24;7.97;;;1.67;;
51382;SDS011;37475;43.358;1.248;2023-09-19T00:53:52;6.82;;;1.85;;
51382;SDS011;37475;43.358;1.248;2023-09-19T00:56:19;5.35;;;1.65;;
51382;SDS011;37475;43.358;1.248;2023-09-19T00:58:45;9.60;;;1.98;;
51382;SDS011;37475;43.358;1.248;2023-09-19T01:01:15;7.45;;;2.05;;
51382;SDS011;37475;43.358;1.248;2023-09-19T01:03:42;8.07;;;1.80;;
51382;SDS011;37475;43.358;1.248;2023-09-19T01:06:09;6.88;;;1.70;;
51382;SDS011;37475;43.358;1.248;2023-09-19T01:08:35;8.02;;;1.77;;
51382;SDS011;37475;43.358;1.248;2023-09-19T01:13:55;6.90;;;1.80;;
51382;SDS011;37475;43.358;1.248;2023-09-19T01:22:21;7.43;;;1.95;;
51382;SDS011;37475;43.358;1.248;2023-09-19T01:25:19;7.03;;;1.77;;
51382;SDS011;37475;43.358;1.248;2023-09-19T01:30:39;4.72;;;1.80;;
51382;SDS011;37475;43.358;1.248;2023-09-19T01:33:09;7.40;;;1.70;;
51382;SDS011;37475;43.358;1.248;2023-09-19T01:35:37;7.22;;;1.90;;
51382;SDS011;37475;43.358;1.248;2023-09-19T01:38:04;6.70;;;1.80;;
51382;SDS011;37475;43.358;1.248;2023-09-19T01:40:43;6.25;;;1.88;;
51382;SDS011;37475;43.358;1.248;2023-09-19T01:43:27;5.70;;;1.85;;
51382;SDS011;37475;43.358;1.248;2023-09-19T01:46:04;8.85;;;2.00;;
51382;SDS011;37475;43.358;1.248;2023-09-19T01:51:17;6.50;;;2.10;;
51382;SDS011;37475;43.358;1.248;2023-09-19T01:54:12;8.73;;;2.33;;
51382;SDS011;37475;43.358;1.248;2023-09-19T01:56:53;6.85;;;2.10;;
51382;SDS011;37475;43.358;1.248;2023-09-19T01:59:30;8.27;;;2.20;;
51382;SDS011;37475;43.358;1.248;2023-09-19T02:02:21;6.43;;;2.20;;
51382;SDS011;37475;43.358;1.248;2023-09-19T02:04:48;5.28;;;1.90;;
51382;SDS011;37475;43.358;1.248;2023-09-19T02:07:15;6.70;;;1.88;;
51382;SDS011;37475;43.358;1.248;2023-09-19T02:09:42;8.18;;;1.73;;
51382;SDS011;37475;43.358;1.248;2023-09-19T02:12:08;8.65;;;2.03;;
51382;SDS011;37475;43.358;1.248;2023-09-19T02:14:35;6.88;;;1.90;;
51382;SDS011;37475;43.358;1.248;2023-09-19T02:17:03;8.25;;;1.98;;
51382;SDS011;37475;43.358;1.248;2023-09-19T02:19:32;5.93;;;1.77;;
51382;SDS011;37475;43.358;1.248;2023-09-19T02:21:59;8.68;;;2.33;;
51382;SDS011;37475;43.358;1.248;2023-09-19T02:24:28;5.78;;;1.92;;
51382;SDS011;37475;43.358;1.248;2023-09-19T02:26:54;8.80;;;1.88;;
51382;SDS011;37475;43.358;1.248;2023-09-19T02:29:20;5.80;;;1.98;;
51382;SDS011;37475;43.358;1.248;2023-09-19T02:31:47;7.40;;;2.05;;
51382;SDS011;37475;43.358;1.248;2023-09-19T02:34:13;6.88;;;1.98;;
51382;SDS011;37475;43.358;1.248;2023-09-19T02:36:41;10.60;;;1.80;;
51382;SDS011;37475;43.358;1.248;2023-09-19T02:39:09;7.32;;;1.80;;
51382;SDS011;37475;43.358;1.248;2023-09-19T02:41:36;8.05;;;1.70;;
51382;SDS011;37475;43.358;1.248;2023-09-19T02:44:02;7.15;;;1.90;;
51382;SDS011;37475;43.358;1.248;2023-09-19T02:46:32;8.77;;;2.00;;
51382;SDS011;37475;43.358;1.248;2023-09-19T02:48:58;7.35;;;2.10;;
51382;SDS011;37475;43.358;1.248;2023-09-19T02:51:24;7.85;;;2.38;;
51382;SDS011;37475;43.358;1.248;2023-09-19T02:53:50;4.90;;;1.90;;
51382;SDS011;37475;43.358;1.248;2023-09-19T02:56:19;6.10;;;2.10;;
51382;SDS011;37475;43.358;1.248;2023-09-19T02:58:45;7.97;;;2.33;;
51382;SDS011;37475;43.358;1.248;2023-09-19T03:01:11;5.72;;;1.85;;
51382;SDS011;37475;43.358;1.248;2023-09-19T03:03:37;5.60;;;2.05;;
51382;SDS011;37475;43.358;1.248;2023-09-19T03:06:07;10.13;;;2.13;;
51382;SDS011;37475;43.358;1.248;2023-09-19T03:08:34;7.22;;;2.10;;
51382;SDS011;37475;43.358;1.248;2023-09-19T03:11:05;11.05;;;2.38;;
51382;SDS011;37475;43.358;1.248;2023-09-19T03:13:34;4.90;;;1.63;;
51382;SDS011;37475;43.358;1.248;2023-09-19T03:16:02;8.32;;;2.17;;
51382;SDS011;37475;43.358;1.248;2023-09-19T03:18:34;7.18;;;2.00;;
51382;SDS011;37475;43.358;1.248;2023-09-19T03:21:00;7.78;;;1.70;;
51382;SDS011;37475;43.358;1.248;2023-09-19T03:23:26;5.55;;;1.90;;
51382;SDS011;37475;43.358;1.248;2023-09-19T03:25:54;7.93;;;2.20;;
51382;SDS011;37475;43.358;1.248;2023-09-19T03:28:21;6.63;;;2.00;;
51382;SDS011;37475;43.358;1.248;2023-09-19T03:30:58;7.38;;;2.28;;
51382;SDS011;37475;43.358;1.248;2023-09-19T03:33:33;9.68;;;2.33;;
51382;SDS011;37475;43.358;1.248;2023-09-19T03:35:59;10.18;;;2.40;;
51382;SDS011;37475;43.358;1.248;2023-09-19T03:38:29;9.00;;;2.10;;
51382;SDS011;37475;43.358;1.248;2023-09-19T03:40:56;8.95;;;1.70;;
51382;SDS011;37475;43.358;1.248;2023-09-19T03:43:22;7.43;;;2.10;;
51382;SDS011;37475;43.358;1.248;2023-09-19T03:45:48;8.27;;;2.17;;
51382;SDS011;37475;43.358;1.248;2023-09-19T03:48:15;6.45;;;2.17;;
51382;SDS011;37475;43.358;1.248;2023-09-19T03:50:42;8.25;;;2.00;;
51382;SDS011;37475;43.358;1.248;2023-09-19T03:53:09;8.93;;;2.55;;
51382;SDS011;37475;43.358;1.248;2023-09-19T03:55:35;9.65;;;2.47;;
51382;SDS011;37475;43.358;1.248;2023-09-19T03:58:03;9.88;;;2.45;;
51382;SDS011;37475;43.358;1.248;2023-09-19T04:00:29;8.25;;;2.63;;
51382;SDS011;37475;43.358;1.248;2023-09-19T04:02:54;5.72;;;2.30;;
51382;SDS011;37475;43.358;1.248;2023-09-19T04:05:22;6.57;;;2.25;;
51382;SDS011;37475;43.358;1.248;2023-09-19T04:07:48;8.73;;;2.47;;
51382;SDS011;37475;43.358;1.248;2023-09-19T04:10:15;6.47;;;2.33;;
51382;SDS011;37475;43.358;1.248;2023-09-19T04:12:50;7.82;;;2.35;;
51382;SDS011;37475;43.358;1.248;2023-09-19T04:15:19;8.07;;;2.40;;
51382;SDS011;37475;43.358;1.248;2023-09-19T04:17:47;8.55;;;2.47;;
51382;SDS011;37475;43.358;1.248;2023-09-19T04:20:14;5.68;;;2.40;;
51382;SDS011;37475;43.358;1.248;2023-09-19T04:22:41;8.35;;;2.40;;
51382;SDS011;37475;43.358;1.248;2023-09-19T04:25:07;6.50;;;2.40;;
51382;SDS011;37475;43.358;1.248;2023-09-19T04:27:33;12.63;;;2.53;;
51382;SDS011;37475;43.358;1.248;2023-09-19T04:29:59;8.27;;;2.67;;
51382;SDS011;37475;43.358;1.248;2023-09-19T04:32:29;11.13;;;2.70;;
51382;SDS011;37475;43.358;1.248;2023-09-19T04:34:57;9.50;;;2.60;;
51382;SDS011;37475;43.358;1.248;2023-09-19T04:37:25;10.20;;;2.70;;
51382;SDS011;37475;43.358;1.248;2023-09-19T04:39:51;9.68;;;3.15;;
51382;SDS011;37475;43.358;1.248;2023-09-19T04:42:17;12.73;;;2.60;;
51382;SDS011;37475;43.358;1.248;2023-09-19T04:44:42;8.48;;;2.70;;
51382;SDS011;37475;43.358;1.248;2023-09-19T04:47:08;10.20;;;2.75;;
51382;SDS011;37475;43.358;1.248;2023-09-19T04:49:37;12.00;;;3.17;;
51382;SDS011;37475;43.358;1.248;2023-09-19T04:52:02;10.02;;;2.60;;
51382;SDS011;37475;43.358;1.248;2023-09-19T04:54:29;6.88;;;2.67;;
51382;SDS011;37475;43.358;1.248;2023-09-19T04:56:54;6.75;;;2.45;;
51382;SDS011;37475;43.358;1.248;2023-09-19T04:59:20;8.85;;;2.70;;
51382;SDS011;37475;43.358;1.248;2023-09-19T05:01:46;10.30;;;2.72;;
51382;SDS011;37475;43.358;1.248;2023-09-19T05:04:12;7.05;;;2.47;;
51382;SDS011;37475;43.358;1.248;2023-09-19T05:06:38;8.45;;;2.35;;
51382;SDS011;37475;43.358;1.248;2023-09-19T05:09:03;9.48;;;2.30;;
51382;SDS011;37475;43.358;1.248;2023-09-19T05:11:30;5.90;;;2.35;;
51382;SDS011;37475;43.358;1.248;2023-09-19T05:13:56;6.65;;;2.35;;
51382;SDS011;37475;43.358;1.248;2023-09-19T05:16:22;11.48;;;2.50;;
51382;SDS011;37475;43.358;1.248;2023-09-19T05:18:48;5.55;;;2.35;;
51382;SDS011;37475;43.358;1.248;2023-09-19T05:21:14;9.48;;;2.70;;
51382;SDS011;37475;43.358;1.248;2023-09-19T05:23:40;9.63;;;2.50;;
51382;SDS011;37475;43.358;1.248;2023-09-19T05:26:07;9.35;;;2.83;;
51382;SDS011;37475;43.358;1.248;2023-09-19T05:28:33;12.07;;;2.60;;
51382;SDS011;37475;43.358;1.248;2023-09-19T05:31:00;10.65;;;3.22;;
51382;SDS011;37475;43.358;1.248;2023-09-19T05:33:29;9.60;;;2.95;;
51382;SDS011;37475;43.358;1.248;2023-09-19T05:35:56;9.27;;;2.67;;
51382;SDS011;37475;43.358;1.248;2023-09-19T05:38:22;7.38;;;2.58;;
51382;SDS011;37475;43.358;1.248;2023-09-19T05:40:49;5.28;;;2.40;;
51382;SDS011;37475;43.358;1.248;2023-09-19T05:43:15;6.75;;;2.65;;
51382;SDS011;37475;43.358;1.248;2023-09-19T05:45:41;7.50;;;2.67;;
51382;SDS011;37475;43.358;1.248;2023-09-19T05:48:15;7.65;;;2.55;;
51382;SDS011;37475;43.358;1.248;2023-09-19T05:50:42;10.38;;;2.60;;
51382;SDS011;37475;43.358;1.248;2023-09-19T05:53:08;8.45;;;2.45;;
51382;SDS011;37475;43.358;1.248;2023-09-19T05:55:37;7.90;;;3.13;;
51382;SDS011;37475;43.358;1.248;2023-09-19T05:58:03;9.18;;;2.67;;
51382;SDS011;37475;43.358;1.248;2023-09-19T06:00:30;14.07;;;4.20;;
51382;SDS011;37475;43.358;1.248;2023-09-19T06:02:58;8.32;;;3.15;;
51382;SDS011;37475;43.358;1.248;2023-09-19T06:05:25;11.10;;;3.10;;
51382;SDS011;37475;43.358;1.248;2023-09-19T06:07:53;13.45;;;2.95;;
51382;SDS011;37475;43.358;1.248;2023-09-19T06:10:19;8.27;;;2.85;;
51382;SDS011;37475;43.358;1.248;2023-09-19T06:12:46;9.60;;;2.72;;
51382;SDS011;37475;43.358;1.248;2023-09-19T06:15:13;9.18;;;2.90;;
51382;SDS011;37475;43.358;1.248;2023-09-19T06:18:02;12.88;;;2.90;;
51382;SDS011;37475;43.358;1.248;2023-09-19T06:20:29;8.20;;;2.83;;
51382;SDS011;37475;43.358;1.248;2023-09-19T06:22:56;13.32;;;3.10;;
51382;SDS011;37475;43.358;1.248;2023-09-19T06:25:22;8.13;;;2.95;;
51382;SDS011;37475;43.358;1.248;2023-09-19T06:27:48;8.52;;;2.70;;
51382;SDS011;37475;43.358;1.248;2023-09-19T06:30:17;9.57;;;2.95;;
51382;SDS011;37475;43.358;1.248;2023-09-19T06:32:43;13.32;;;3.00;;
51382;SDS011;37475;43.358;1.248;2023-09-19T06:35:13;9.32;;;3.20;;
51382;SDS011;37475;43.358;1.248;2023-09-19T06:37:41;8.07;;;2.70;;
51382;SDS011;37475;43.358;1.248;2023-09-19T06:40:12;9.90;;;2.47;;
51382;SDS011;37475;43.358;1.248;2023-09-19T06:42:39;8.27;;;2.78;;
51382;SDS011;37475;43.358;1.248;2023-09-19T06:45:10;11.07;;;3.13;;
51382;SDS011;37475;43.358;1.248;2023-09-19T06:47:42;10.20;;;3.10;;
51382;SDS011;37475;43.358;1.248;2023-09-19T06:50:16;7.18;;;2.38;;
51382;SDS011;37475;43.358;1.248;2023-09-19T06:52:48;11.57;;;2.75;;
51382;SDS011;37475;43.358;1.248;2023-09-19T06:55:17;8.23;;;2.92;;
51382;SDS011;37475;43.358;1.248;2023-09-19T06:57:44;7.95;;;2.88;;
51382;SDS011;37475;43.358;1.248;2023-09-19T07:00:12;8.77;;;3.08;;
51382;SDS011;37475;43.358;1.248;2023-09-19T07:03:03;12.20;;;2.97;;
51382;SDS011;37475;43.358;1.248;2023-09-19T07:05:33;10.90;;;3.00;;
51382;SDS011;37475;43.358;1.248;2023-09-19T07:08:04;12.27;;;2.97;;
51382;SDS011;37475;43.358;1.248;2023-09-19T07:10:31;10.93;;;3.47;;
51382;SDS011;37475;43.358;1.248;2023-09-19T07:15:29;15.90;;;3.05;;
51382;SDS011;37475;43.358;1.248;2023-09-19T07:18:00;13.95;;;3.00;;
51382;SDS011;37475;43.358;1.248;2023-09-19T07:20:26;13.05;;;2.75;;
51382;SDS011;37475;43.358;1.248;2023-09-19T07:22:54;10.10;;;2.67;;
51382;SDS011;37475;43.358;1.248;2023-09-19T07:25:20;12.32;;;2.78;;
51382;SDS011;37475;43.358;1.248;2023-09-19T07:27:46;6.75;;;2.30;;
51382;SDS011;37475;43.358;1.248;2023-09-19T07:30:12;12.00;;;2.40;;
51382;SDS011;37475;43.358;1.248;2023-09-19T07:32:40;9.32;;;2.35;;
51382;SDS011;37475;43.358;1.248;2023-09-19T07:35:06;9.43;;;2.55;;
51382;SDS011;37475;43.358;1.248;2023-09-19T07:37:32;10.25;;;2.50;;
51382;SDS011;37475;43.358;1.248;2023-09-19T07:40:01;9.43;;;2.58;;
51382;SDS011;37475;43.358;1.248;2023-09-19T07:42:37;11.57;;;2.58;;
51382;SDS011;37475;43.358;1.248;2023-09-19T07:45:04;8.70;;;2.10;;
51382;SDS011;37475;43.358;1.248;2023-09-19T07:47:31;8.88;;;2.45;;
51382;SDS011;37475;43.358;1.248;2023-09-19T07:49:57;11.68;;;2.33;;
51382;SDS011;37475;43.358;1.248;2023-09-19T07:52:25;7.80;;;2.22;;
51382;SDS011;37475;43.358;1.248;2023-09-19T07:54:52;7.22;;;2.08;;
51382;SDS011;37475;43.358;1.248;2023-09-19T07:57:19;8.23;;;2.33;;
51382;SDS011;37475;43.358;1.248;2023-09-19T07:59:45;9.30;;;2.65;;
51382;SDS011;37475;43.358;1.248;2023-09-19T08:02:10;8.98;;;2.03;;
51382;SDS011;37475;43.358;1.248;2023-09-19T08:04:44;7.88;;;2.05;;
51382;SDS011;37475;43.358;1.248;2023-09-19T08:07:10;8.98;;;2.55;;
51382;SDS011;37475;43.358;1.248;2023-09-19T08:09:38;8.18;;;2.35;;
51382;SDS011;37475;43.358;1.248;2023-09-19T08:12:05;7.78;;;2.50;;
51382;SDS011;37475;43.358;1.248;2023-09-19T08:14:36;6.10;;;2.10;;
51382;SDS011;37475;43.358;1.248;2023-09-19T08:17:03;5.97;;;1.73;;
51382;SDS011;37475;43.358;1.248;2023-09-19T08:19:33;6.53;;;1.83;;
51382;SDS011;37475;43.358;1.248;2023-09-19T08:21:59;8.68;;;2.03;;
51382;SDS011;37475;43.358;1.248;2023-09-19T08:24:30;6.85;;;1.50;;
51382;SDS011;37475;43.358;1.248;2023-09-19T08:26:56;6.30;;;1.50;;
51382;SDS011;37475;43.358;1.248;2023-09-19T08:29:23;8.35;;;1.70;;
51382;SDS011;37475;43.358;1.248;2023-09-19T08:31:53;5.13;;;1.52;;
51382;SDS011;37475;43.358;1.248;2023-09-19T08:34:20;8.15;;;1.77;;
51382;SDS011;37475;43.358;1.248;2023-09-19T08:36:48;3.75;;;1.55;;
51382;SDS011;37475;43.358;1.248;2023-09-19T08:39:21;6.28;;;1.40;;
51382;SDS011;37475;43.358;1.248;2023-09-19T08:41:57;6.57;;;1.58;;
51382;SDS011;37475;43.358;1.248;2023-09-19T08:44:27;7.90;;;1.60;;
51382;SDS011;37475;43.358;1.248;2023-09-19T08:47:08;4.00;;;1.30;;
51382;SDS011;37475;43.358;1.248;2023-09-19T08:50:26;4.47;;;1.40;;
51382;SDS011;37475;43.358;1.248;2023-09-19T08:52:37;6.55;;;1.55;;
51382;SDS011;37475;43.358;1.248;2023-09-19T08:55:07;11.90;;;1.48;;
51382;SDS011;37475;43.358;1.248;2023-09-19T08:57:45;5.00;;;1.10;;
51382;SDS011;37475;43.358;1.248;2023-09-19T09:00:16;3.60;;;0.90;;
51382;SDS011;37475;43.358;1.248;2023-09-19T09:02:43;5.93;;;0.90;;
51382;SDS011;37475;43.358;1.248;2023-09-19T09:05:10;4.53;;;1.13;;
51382;SDS011;37475;43.358;1.248;2023-09-19T09:07:42;7.60;;;1.25;;
51382;SDS011;37475;43.358;1.248;2023-09-19T09:10:09;5.13;;;1.52;;
51382;SDS011;37475;43.358;1.248;2023-09-19T09:12:35;4.70;;;1.20;;
51382;SDS011;37475;43.358;1.248;2023-09-19T09:15:04;6.22;;;1.20;;
51382;SDS011;37475;43.358;1.248;2023-09-19T09:17:30;5.22;;;1.10;;
51382;SDS011;37475;43.358;1.248;2023-09-19T09:19:56;7.85;;;1.45;;
51382;SDS011;37475;43.358;1.248;2023-09-19T09:22:22;5.97;;;1.10;;
51382;SDS011;37475;43.358;1.248;2023-09-19T09:27:29;4.18;;;1.00;;
51382;SDS011;37475;43.358;1.248;2023-09-19T09:29:57;5.38;;;1.25;;
51382;SDS011;37475;43.358;1.248;2023-09-19T09:34:52;5.07;;;0.90;;
51382;SDS011;37475;43.358;1.248;2023-09-19T09:37:21;4.63;;;1.02;;
51382;SDS011;37475;43.358;1.248;2023-09-19T09:39:53;3.17;;;0.90;;
51382;SDS011;37475;43.358;1.248;2023-09-19T09:48:00;4.50;;;1.05;;
51382;SDS011;37475;43.358;1.248;2023-09-19T09:50:38;3.45;;;0.80;;
51382;SDS011;37475;43.358;1.248;2023-09-19T09:53:27;6.65;;;1.25;;
51382;SDS011;37475;43.358;1.248;2023-09-19T09:58:34;3.05;;;0.80;;
51382;SDS011;37475;43.358;1.248;2023-09-19T10:01:14;3.50;;;0.80;;
51382;SDS011;37475;43.358;1.248;2023-09-19T10:03:41;3.97;;;0.90;;
51382;SDS011;37475;43.358;1.248;2023-09-19T10:06:18;8.35;;;1.20;;
51382;SDS011;37475;43.358;1.248;2023-09-19T10:12:02;4.43;;;1.00;;
51382;SDS011;37475;43.358;1.248;2023-09-19T10:14:34;2.67;;;0.73;;
51382;SDS011;37475;43.358;1.248;2023-09-19T10:17:04;6.55;;;1.15;;
51382;SDS011;37475;43.358;1.248;2023-09-19T10:19:37;5.90;;;1.10;;
51382;SDS011;37475;43.358;1.248;2023-09-19T10:22:23;3.15;;;0.90;;
51382;SDS011;37475;43.358;1.248;2023-09-19T10:24:52;5.80;;;1.10;;
51382;SDS011;37475;43.358;1.248;2023-09-19T10:27:22;3.88;;;0.90;;
51382;SDS011;37475;43.358;1.248;2023-09-19T10:29:51;3.58;;;0.82;;
51382;SDS011;37475;43.358;1.248;2023-09-19T10:32:22;4.97;;;1.27;;
51382;SDS011;37475;43.358;1.248;2023-09-19T10:34:49;2.67;;;0.80;;
51382;SDS011;37475;43.358;1.248;2023-09-19T10:37:18;3.05;;;0.70;;
51382;SDS011;37475;43.358;1.248;2023-09-19T10:39:50;3.60;;;0.70;;
51382;SDS011;37475;43.358;1.248;2023-09-19T10:42:19;5.03;;;0.88;;
51382;SDS011;37475;43.358;1.248;2023-09-19T10:44:45;4.00;;;1.17;;
51382;SDS011;37475;43.358;1.248;2023-09-19T10:47:18;3.55;;;0.90;;
51382;SDS011;37475;43.358;1.248;2023-09-19T10:49:46;4.53;;;0.90;;
51382;SDS011;37475;43.358;1.248;2023-09-19T10:52:13;5.30;;;0.90;;
51382;SDS011;37475;43.358;1.248;2023-09-19T10:54:48;4.47;;;1.13;;
51382;SDS011;37475;43.358;1.248;2023-09-19T10:57:20;4.18;;;0.90;;
51382;SDS011;37475;43.358;1.248;2023-09-19T11:00:08;3.85;;;0.88;;
51382;SDS011;37475;43.358;1.248;2023-09-19T11:09:03;4.55;;;0.98;;
51382;SDS011;37475;43.358;1.248;2023-09-19T11:11:50;6.63;;;1.30;;
51382;SDS011;37475;43.358;1.248;2023-09-19T11:23:17;3.72;;;0.90;;
51382;SDS011;37475;43.358;1.248;2023-09-19T11:30:47;2.72;;;0.80;;
51382;SDS011;37475;43.358;1.248;2023-09-19T11:33:18;2.88;;;0.82;;
51382;SDS011;37475;43.358;1.248;2023-09-19T11:36:04;2.63;;;0.90;;
51382;SDS011;37475;43.358;1.248;2023-09-19T11:49:05;3.70;;;0.82;;
51382;SDS011;37475;43.358;1.248;2023-09-19T11:51:42;3.42;;;0.73;;
51382;SDS011;37475;43.358;1.248;2023-09-19T11:54:10;2.27;;;0.70;;
51382;SDS011;37475;43.358;1.248;2023-09-19T11:56:46;2.58;;;0.90;;
51382;SDS011;37475;43.358;1.248;2023-09-19T11:59:19;4.13;;;1.00;;
51382;SDS011;37475;43.358;1.248;2023-09-19T12:01:53;3.03;;;0.93;;
51382;SDS011;37475;43.358;1.248;2023-09-19T12:04:36;2.05;;;0.90;;
51382;SDS011;37475;43.358;1.248;2023-09-19T12:07:07;4.03;;;0.90;;
51382;SDS011;37475;43.358;1.248;2023-09-19T12:09:44;3.50;;;0.70;;
51382;SDS011;37475;43.358;1.248;2023-09-19T12:12:27;3.40;;;0.60;;
51382;SDS011;37475;43.358;1.248;2023-09-19T12:14:53;3.28;;;0.88;;
51382;SDS011;37475;43.358;1.248;2023-09-19T12:17:22;5.28;;;1.10;;
51382;SDS011;37475;43.358;1.248;2023-09-19T12:19:55;3.55;;;0.88;;
51382;SDS011;37475;43.358;1.248;2023-09-19T12:24:48;3.25;;;0.80;;
51382;SDS011;37475;43.358;1.248;2023-09-19T12:27:15;4.40;;;1.00;;
51382;SDS011;37475;43.358;1.248;2023-09-19T12:29:45;3.53;;;0.90;;
51382;SDS011;37475;43.358;1.248;2023-09-19T12:32:19;2.55;;;0.80;;
51382;SDS011;37475;43.358;1.248;2023-09-19T12:35:05;3.15;;;0.90;;
51382;SDS011;37475;43.358;1.248;2023-09-19T12:37:42;2.47;;;0.80;;
51382;SDS011;37475;43.358;1.248;2023-09-19T12:40:18;3.25;;;0.90;;
51382;SDS011;37475;43.358;1.248;2023-09-19T12:42:50;3.30;;;0.80;;
51382;SDS011;37475;43.358;1.248;2023-09-19T12:45:20;2.17;;;0.80;;
51382;SDS011;37475;43.358;1.248;2023-09-19T12:53:44;3.53;;;1.08;;
51382;SDS011;37475;43.358;1.248;2023-09-19T12:56:16;4.65;;;0.88;;
51382;SDS011;37475;43.358;1.248;2023-09-19T13:01:18;3.15;;;0.93;;
51382;SDS011;37475;43.358;1.248;2023-09-19T13:03:45;2.55;;;0.85;;
51382;SDS011;37475;43.358;1.248;2023-09-19T13:06:11;2.92;;;0.80;;
51382;SDS011;37475;43.358;1.248;2023-09-19T13:08:38;3.13;;;0.65;;
51382;SDS011;37475;43.358;1.248;2023-09-19T13:13:50;2.03;;;0.68;;
51382;SDS011;37475;43.358;1.248;2023-09-19T13:16:52;2.72;;;0.80;;
51382;SDS011;37475;43.358;1.248;2023-09-19T13:19:34;2.20;;;0.63;;
51382;SDS011;37475;43.358;1.248;2023-09-19T13:25:17;3.00;;;0.80;;
51382;SDS011;37475;43.358;1.248;2023-09-19T13:27:44;2.40;;;0.80;;
51382;SDS011;37475;43.358;1.248;2023-09-19T13:30:16;3.90;;;0.80;;
51382;SDS011;37475;43.358;1.248;2023-09-19T13:32:43;3.03;;;0.80;;
51382;SDS011;37475;43.358;1.248;2023-09-19T13:35:12;3.53;;;0.82;;
51382;SDS011;37475;43.358;1.248;2023-09-19T13:37:40;4.70;;;1.00;;
51382;SDS011;37475;43.358;1.248;2023-09-19T13:40:08;5.30;;;0.90;;
51382;SDS011;37475;43.358;1.248;2023-09-19T13:42:35;4.63;;;0.98;;
51382;SDS011;37475;43.358;1.248;2023-09-19T13:45:04;2.10;;;0.68;;
51382;SDS011;37475;43.358;1.248;2023-09-19T13:47:31;3.53;;;0.80;;
51382;SDS011;37475;43.358;1.248;2023-09-19T13:49:58;2.58;;;0.70;;
51382;SDS011;37475;43.358;1.248;2023-09-19T13:52:25;2.35;;;0.63;;
51382;SDS011;37475;43.358;1.248;2023-09-19T13:54:54;2.13;;;0.60;;
51382;SDS011;37475;43.358;1.248;2023-09-19T13:57:23;2.47;;;0.88;;
51382;SDS011;37475;43.358;1.248;2023-09-19T13:59:49;3.47;;;0.82;;
51382;SDS011;37475;43.358;1.248;2023-09-19T14:02:16;3.47;;;0.65;;
51382;SDS011;37475;43.358;1.248;2023-09-19T14:04:43;3.17;;;0.70;;
51382;SDS011;37475;43.358;1.248;2023-09-19T14:07:10;2.25;;;0.60;;
51382;SDS011;37475;43.358;1.248;2023-09-19T14:09:36;2.22;;;0.55;;
51382;SDS011;37475;43.358;1.248;2023-09-19T14:12:02;2.78;;;0.70;;
51382;SDS011;37475;43.358;1.248;2023-09-19T14:14:29;2.22;;;0.55;;
51382;SDS011;37475;43.358;1.248;2023-09-19T14:16:54;2.90;;;0.68;;
51382;SDS011;37475;43.358;1.248;2023-09-19T14:19:21;4.07;;;0.60;;
51382;SDS011;37475;43.358;1.248;2023-09-19T14:21:46;2.22;;;0.50;;
51382;SDS011;37475;43.358;1.248;2023-09-19T14:24:18;2.15;;;0.60;;
51382;SDS011;37475;43.358;1.248;2023-09-19T14:26:45;3.40;;;0.73;;
51382;SDS011;37475;43.358;1.248;2023-09-19T14:29:11;2.10;;;0.63;;
51382;SDS011;37475;43.358;1.248;2023-09-19T14:31:39;2.33;;;0.50;;
51382;SDS011;37475;43.358;1.248;2023-09-19T14:34:05;3.15;;;0.80;;
51382;SDS011;37475;43.358;1.248;2023-09-19T14:36:35;2.42;;;0.70;;
51382;SDS011;37475;43.358;1.248;2023-09-19T14:39:01;1.95;;;0.60;;
51382;SDS011;37475;43.358;1.248;2023-09-19T14:41:27;3.15;;;0.60;;
51382;SDS011;37475;43.358;1.248;2023-09-19T14:43:53;1.80;;;0.60;;
51382;SDS011;37475;43.358;1.248;2023-09-19T14:46:20;3.63;;;0.60;;
51382;SDS011;37475;43.358;1.248;2023-09-19T14:48:46;5.13;;;0.70;;
51382;SDS011;37475;43.358;1.248;2023-09-19T14:51:12;1.63;;;0.55;;
51382;SDS011;37475;43.358;1.248;2023-09-19T14:53:39;3.90;;;0.80;;
51382;SDS011;37475;43.358;1.248;2023-09-19T14:56:09;2.47;;;0.75;;
51382;SDS011;37475;43.358;1.248;2023-09-19T14:58:36;1.20;;;0.50;;
51382;SDS011;37475;43.358;1.248;2023-09-19T15:01:10;2.05;;;0.60;;
51382;SDS011;37475;43.358;1.248;2023-09-19T15:03:38;2.15;;;0.57;;
51382;SDS011;37475;43.358;1.248;2023-09-19T15:06:11;3.55;;;0.68;;
51382;SDS011;37475;43.358;1.248;2023-09-19T15:08:39;3.13;;;0.80;;
51382;SDS011;37475;43.358;1.248;2023-09-19T15:11:10;1.07;;;0.50;;
51382;SDS011;37475;43.358;1.248;2023-09-19T15:13:37;2.88;;;0.63;;
51382;SDS011;37475;43.358;1.248;2023-09-19T15:16:04;2.90;;;0.75;;
51382;SDS011;37475;43.358;1.248;2023-09-19T15:18:35;3.33;;;0.60;;
51382;SDS011;37475;43.358;1.248;2023-09-19T15:21:07;1.85;;;0.50;;
51382;SDS011;37475;43.358;1.248;2023-09-19T15:23:35;2.58;;;0.70;;
51382;SDS011;37475;43.358;1.248;2023-09-19T15:26:07;2.38;;;0.40;;
51382;SDS011;37475;43.358;1.248;2023-09-19T15:28:34;1.25;;;0.50;;
51382;SDS011;37475;43.358;1.248;2023-09-19T15:31:04;1.80;;;0.60;;
51382;SDS011;37475;43.358;1.248;2023-09-19T15:33:35;4.22;;;0.60;;
51382;SDS011;37475;43.358;1.248;2023-09-19T15:36:01;3.45;;;0.50;;
51382;SDS011;37475;43.358;1.248;2023-09-19T15:38:28;3.70;;;0.50;;
51382;SDS011;37475;43.358;1.248;2023-09-19T15:40:55;2.70;;;0.63;;
51382;SDS011;37475;43.358;1.248;2023-09-19T15:43:20;3.33;;;0.63;;
51382;SDS011;37475;43.358;1.248;2023-09-19T15:45:47;4.90;;;0.80;;
51382;SDS011;37475;43.358;1.248;2023-09-19T15:48:14;2.22;;;0.80;;
51382;SDS011;37475;43.358;1.248;2023-09-19T15:50:41;3.70;;;0.60;;
51382;SDS011;37475;43.358;1.248;2023-09-19T15:53:09;3.13;;;0.63;;
51382;SDS011;37475;43.358;1.248;2023-09-19T15:55:40;3.33;;;0.82;;
51382;SDS011;37475;43.358;1.248;2023-09-19T15:58:06;3.28;;;0.70;;
51382;SDS011;37475;43.358;1.248;2023-09-19T16:00:32;3.00;;;0.65;;
51382;SDS011;37475;43.358;1.248;2023-09-19T16:03:02;3.30;;;0.70;;
51382;SDS011;37475;43.358;1.248;2023-09-19T16:05:34;4.35;;;0.70;;
51382;SDS011;37475;43.358;1.248;2023-09-19T16:08:05;4.00;;;0.90;;
51382;SDS011;37475;43.358;1.248;2023-09-19T16:10:35;2.45;;;0.60;;
51382;SDS011;37475;43.358;1.248;2023-09-19T16:13:03;3.30;;;0.68;;
51382;SDS011;37475;43.358;1.248;2023-09-19T16:15:29;1.90;;;0.65;;
51382;SDS011;37475;43.358;1.248;2023-09-19T16:17:55;5.88;;;0.90;;
51382;SDS011;37475;43.358;1.248;2023-09-19T16:20:21;2.22;;;0.60;;